createdAt,value
2018-01-12T00:02:09.768Z,3.30
2018-01-12T00:04:39.546Z,3.30
2018-01-12T00:07:09.420Z,3.30
2018-01-12T00:09:39.230Z,3.30
2018-01-12T00:12:09.831Z,3.20
2018-01-12T00:14:39.665Z,3.20
2018-01-12T00:17:09.516Z,3.20
2018-01-12T00:19:39.369Z,3.20
2018-01-12T00:22:08.513Z,3.20
2018-01-12T00:24:38.040Z,3.20
2018-01-12T00:27:07.900Z,3.20
2018-01-12T00:29:37.752Z,3.20
2018-01-12T00:32:07.624Z,3.20
2018-01-12T00:34:37.437Z,3.20
2018-01-12T00:37:07.267Z,3.10
2018-01-12T00:39:37.661Z,3.20
2018-01-12T00:42:07.287Z,3.20
2018-01-12T00:44:37.077Z,3.10
2018-01-12T00:47:06.689Z,3.20
2018-01-12T00:49:36.302Z,3.20
2018-01-12T00:52:05.953Z,3.20
2018-01-12T00:54:35.300Z,3.30
2018-01-12T00:57:04.245Z,3.30
2018-01-12T00:59:33.829Z,3.30
2018-01-12T01:02:03.652Z,3.40
2018-01-12T01:04:33.486Z,3.40
2018-01-12T01:07:03.269Z,3.30
2018-01-12T01:09:33.098Z,3.30
2018-01-12T01:12:02.876Z,3.30
2018-01-12T01:14:32.826Z,3.30
2018-01-12T01:17:02.649Z,3.30
2018-01-12T01:19:32.462Z,3.20
2018-01-12T01:22:02.294Z,3.20
2018-01-12T01:24:32.079Z,3.20
2018-01-12T01:27:01.880Z,3.20
2018-01-12T01:29:32.409Z,3.20
2018-01-12T01:32:02.250Z,3.20
2018-01-12T01:34:32.040Z,3.20
2018-01-12T01:37:01.836Z,3.20
2018-01-12T01:39:32.455Z,3.10
2018-01-12T01:42:03.017Z,3.10
2018-01-12T01:44:32.533Z,3.10
2018-01-12T01:47:02.317Z,3.10
2018-01-12T01:49:32.156Z,3.20
2018-01-12T01:52:01.938Z,3.20
2018-01-12T01:54:32.517Z,3.20
2018-01-12T01:57:02.281Z,3.20
2018-01-12T01:59:32.873Z,3.20
2018-01-12T02:02:02.359Z,3.20
2018-01-12T02:04:32.132Z,3.20
2018-01-12T02:07:02.734Z,3.20
2018-01-12T02:09:33.020Z,3.20
2018-01-12T02:12:02.882Z,3.20
2018-01-12T02:14:32.657Z,3.20
2018-01-12T02:17:02.245Z,3.20
2018-01-12T02:19:31.405Z,3.20
2018-01-12T02:22:02.025Z,3.20
2018-01-12T02:24:31.845Z,3.20
2018-01-12T02:27:01.418Z,3.10
2018-01-12T02:29:31.253Z,3.10
2018-01-12T02:32:01.048Z,3.20
2018-01-12T02:34:30.688Z,3.20
2018-01-12T02:37:00.512Z,3.10
2018-01-12T02:39:31.117Z,3.10
2018-01-12T02:42:00.968Z,3.10
2018-01-12T02:44:30.740Z,3.10
2018-01-12T02:47:00.560Z,3.10
2018-01-12T02:49:30.365Z,3.10
2018-01-12T02:52:00.676Z,3.10
2018-01-12T02:54:30.765Z,3.10
2018-01-12T02:57:00.564Z,3.10
2018-01-12T02:59:30.409Z,3.00
2018-01-12T03:02:00.232Z,3.10
2018-01-12T03:04:29.856Z,3.10
2018-01-12T03:06:59.676Z,3.10
2018-01-12T03:09:29.466Z,3.10
2018-01-12T03:11:59.952Z,3.10
2018-01-12T03:14:29.778Z,3.10
2018-01-12T03:16:59.607Z,3.10
2018-01-12T03:19:29.382Z,3.00
2018-01-12T03:21:59.997Z,3.00
2018-01-12T03:24:29.796Z,3.00
2018-01-12T03:27:00.132Z,3.00
2018-01-12T03:29:30.036Z,3.00
2018-01-12T03:31:59.891Z,3.00
2018-01-12T03:34:30.271Z,3.00
2018-01-12T03:37:00.088Z,2.90
2018-01-12T03:39:29.862Z,2.90
2018-01-12T03:41:59.676Z,3.00
2018-01-12T03:44:29.485Z,2.90
2018-01-12T03:46:59.296Z,2.90
2018-01-12T03:49:29.080Z,2.80
2018-01-12T03:51:59.641Z,2.80
2018-01-12T03:54:29.453Z,2.80
2018-01-12T03:56:59.263Z,2.70
2018-01-12T03:59:29.101Z,2.80
2018-01-12T04:01:58.889Z,2.90
2018-01-12T04:04:28.718Z,2.90
2018-01-12T04:06:58.530Z,3.00
2018-01-12T04:09:28.312Z,3.00
2018-01-12T04:11:58.109Z,2.90
2018-01-12T04:14:28.701Z,2.90
2018-01-12T04:16:58.486Z,2.80
2018-01-12T04:19:28.290Z,2.90
2018-01-12T04:21:58.136Z,2.80
2018-01-12T04:24:27.928Z,2.80
2018-01-12T04:26:57.767Z,2.80
2018-01-12T04:29:27.568Z,2.80
2018-01-12T04:31:57.413Z,2.80
2018-01-12T04:34:27.208Z,2.70
2018-01-12T04:36:57.066Z,2.80
2018-01-12T04:39:27.633Z,2.80
2018-01-12T04:41:57.484Z,2.80
2018-01-12T04:44:27.280Z,2.70
2018-01-12T04:46:57.131Z,2.80
2018-01-12T04:49:27.757Z,2.80
2018-01-12T04:51:57.789Z,2.80
2018-01-12T04:54:27.610Z,2.80
2018-01-12T04:56:57.421Z,2.80
2018-01-12T04:59:27.220Z,2.80
2018-01-12T05:01:57.908Z,2.80
2018-01-12T05:04:27.693Z,2.80
2018-01-12T05:06:57.528Z,2.80
2018-01-12T05:09:27.348Z,2.80
2018-01-12T05:11:57.155Z,2.80
2018-01-12T05:14:26.955Z,2.80
2018-01-12T05:16:56.804Z,2.80
2018-01-12T05:19:26.601Z,2.80
2018-01-12T05:21:56.410Z,2.80
2018-01-12T05:24:26.416Z,2.80
2018-01-12T05:26:56.191Z,2.80
2018-01-12T05:29:26.011Z,2.70
2018-01-12T05:31:55.864Z,2.70
2018-01-12T05:34:25.465Z,2.70
2018-01-12T05:36:55.280Z,2.70
2018-01-12T05:39:25.124Z,2.70
2018-01-12T05:41:54.932Z,2.70
2018-01-12T05:44:24.721Z,2.70
2018-01-12T05:46:54.373Z,2.70
2018-01-12T05:49:24.924Z,2.60
2018-01-12T05:51:54.729Z,2.70
2018-01-12T05:54:24.600Z,2.60
2018-01-12T05:56:54.373Z,2.60
2018-01-12T05:59:24.170Z,2.60
2018-01-12T06:02:05.675Z,2.60
2018-01-12T06:04:47.221Z,2.60
2018-01-12T06:07:16.885Z,2.50
2018-01-12T06:09:46.688Z,2.60
2018-01-12T06:12:16.501Z,2.60
2018-01-12T06:14:46.304Z,2.60
2018-01-12T06:17:16.090Z,2.60
2018-01-12T06:19:46.699Z,2.60
2018-01-12T06:22:16.492Z,2.60
2018-01-12T06:24:46.300Z,2.60
2018-01-12T06:27:16.088Z,2.60
2018-01-12T06:29:45.879Z,2.60
2018-01-12T06:32:16.426Z,2.60
2018-01-12T06:34:47.002Z,2.50
2018-01-12T06:37:16.794Z,2.50
2018-01-12T06:39:46.624Z,2.50
2018-01-12T06:42:16.416Z,2.60
2018-01-12T06:44:46.225Z,2.50
2018-01-12T06:47:16.132Z,2.50
2018-01-12T06:49:45.934Z,2.50
2018-01-12T06:52:15.749Z,2.50
2018-01-12T06:54:45.533Z,2.50
2018-01-12T06:57:16.104Z,2.50
2018-01-12T06:59:45.912Z,2.50
2018-01-12T07:02:15.694Z,2.50
2018-01-12T07:04:46.285Z,2.60
2018-01-12T07:07:16.049Z,2.50
2018-01-12T07:09:45.828Z,2.50
2018-01-12T07:12:15.468Z,2.50
2018-01-12T07:14:45.145Z,2.50
2018-01-12T07:17:14.990Z,2.50
2018-01-12T07:19:45.560Z,2.50
2018-01-12T07:22:24.060Z,2.50
2018-01-12T07:24:53.365Z,2.50
2018-01-12T07:27:23.196Z,2.50
2018-01-12T07:29:52.976Z,2.50
2018-01-12T07:32:22.756Z,2.40
2018-01-12T07:34:53.344Z,2.40
2018-01-12T07:37:23.122Z,2.40
2018-01-12T07:39:53.836Z,2.40
2018-01-12T07:42:23.608Z,2.40
2018-01-12T07:44:53.436Z,2.40
2018-01-12T07:47:23.221Z,2.40
2018-01-12T07:49:53.033Z,2.50
2018-01-12T07:52:22.850Z,2.50
2018-01-12T07:54:52.656Z,2.50
2018-01-12T07:57:22.456Z,2.50
2018-01-12T07:59:52.413Z,2.50
2018-01-12T08:02:27.804Z,2.50
2018-01-12T08:04:57.760Z,2.50
2018-01-12T08:07:28.373Z,2.60
2018-01-12T08:09:58.212Z,2.50
2018-01-12T08:12:27.704Z,2.50
2018-01-12T08:14:57.770Z,2.60
2018-01-12T08:17:27.615Z,2.60
2018-01-12T08:19:57.435Z,2.60
2018-01-12T08:22:27.247Z,2.60
2018-01-12T08:24:57.096Z,2.70
2018-01-12T08:27:26.916Z,2.70
2018-01-12T08:29:57.012Z,2.70
2018-01-12T08:32:26.848Z,2.70
2018-01-12T08:34:56.696Z,2.70
2018-01-12T08:37:26.760Z,2.70
2018-01-12T08:39:56.600Z,2.80
2018-01-12T08:42:26.388Z,2.70
2018-01-12T08:44:56.208Z,2.70
2018-01-12T08:47:26.022Z,2.70
2018-01-12T08:49:55.824Z,2.70
2018-01-12T08:52:25.701Z,2.80
2018-01-12T08:54:55.494Z,2.80
2018-01-12T08:57:26.080Z,2.80
2018-01-12T08:59:55.960Z,2.80
2018-01-12T09:02:25.969Z,2.80
2018-01-12T09:04:56.603Z,2.80
2018-01-12T09:07:27.196Z,2.70
2018-01-12T09:09:57.018Z,2.70
2018-01-12T09:12:26.820Z,2.80
2018-01-12T09:14:56.017Z,2.70
2018-01-12T09:20:23.906Z,2.80
2018-01-12T09:22:53.706Z,2.80
2018-01-12T09:25:25.984Z,2.80
2018-01-12T09:27:55.810Z,2.80
2018-01-12T09:30:25.580Z,2.80
2018-01-12T09:32:54.711Z,2.80
2018-01-12T09:35:25.045Z,2.80
2018-01-12T09:38:06.089Z,2.80
2018-01-12T09:40:48.533Z,2.80
2018-01-12T09:43:18.514Z,2.80
2018-01-12T09:45:48.529Z,2.80
2018-01-12T09:48:39.660Z,2.70
2018-01-12T09:51:09.250Z,2.80
2018-01-12T09:53:39.200Z,2.80
2018-01-12T09:56:08.995Z,2.80
2018-01-12T09:58:39.451Z,2.80
2018-01-12T10:01:20.269Z,2.80
2018-01-12T10:03:49.900Z,2.80
2018-01-12T10:06:19.716Z,2.80
2018-01-12T10:08:48.662Z,2.80
2018-01-12T10:11:18.165Z,2.70
2018-01-12T10:13:48.180Z,2.70
2018-01-12T10:16:18.748Z,2.80
2018-01-12T10:18:53.632Z,2.80
2018-01-12T10:21:35.028Z,2.80
2018-01-12T10:24:05.344Z,2.80
2018-01-12T10:26:35.166Z,2.80
2018-01-12T10:29:08.782Z,2.80
2018-01-12T10:31:50.476Z,2.90
2018-01-12T10:34:44.145Z,2.90
2018-01-12T10:37:13.684Z,2.90
2018-01-12T10:39:54.864Z,2.90
2018-01-12T10:42:24.381Z,2.90
2018-01-12T10:44:54.902Z,3.00
2018-01-12T10:47:26.704Z,3.00
2018-01-12T10:50:17.781Z,2.90
2018-01-12T10:52:50.160Z,2.90
2018-01-12T10:55:20.046Z,2.90
2018-01-12T10:57:49.887Z,3.00
2018-01-12T11:00:30.883Z,3.00
2018-01-12T11:03:01.467Z,3.00
2018-01-12T11:05:31.839Z,2.90
2018-01-12T11:08:01.759Z,2.90
2018-01-12T11:10:31.713Z,2.90
2018-01-12T11:13:01.780Z,2.90
2018-01-12T11:15:31.728Z,2.90
2018-01-12T11:18:01.544Z,3.00
2018-01-12T11:20:31.383Z,3.00
2018-01-12T11:23:01.346Z,2.90
2018-01-12T11:25:31.933Z,3.00
2018-01-12T11:28:01.770Z,2.90
2018-01-12T11:30:31.717Z,3.00
2018-01-12T11:33:03.108Z,3.00
2018-01-12T11:35:34.766Z,2.90
2018-01-12T11:38:04.574Z,2.90
2018-01-12T11:40:34.424Z,2.90
2018-01-12T11:43:04.268Z,2.80
2018-01-12T11:45:34.930Z,2.90
2018-01-12T11:48:04.719Z,2.90
2018-01-12T11:50:34.528Z,2.90
2018-01-12T11:53:05.174Z,2.90
2018-01-12T11:55:34.999Z,2.90
2018-01-12T11:58:05.284Z,2.90
2018-01-12T12:00:34.901Z,2.90
2018-01-12T12:03:05.535Z,2.90
2018-01-12T12:05:36.380Z,2.90
2018-01-12T12:08:06.977Z,2.90
2018-01-12T12:10:36.765Z,2.90
2018-01-12T12:13:08.100Z,2.90
2018-01-12T12:15:37.893Z,2.90
2018-01-12T12:18:07.972Z,2.90
2018-01-12T12:20:37.956Z,3.00
2018-01-12T12:23:07.748Z,2.90
2018-01-12T12:25:37.588Z,2.90
2018-01-12T12:28:07.404Z,2.90
2018-01-12T12:30:37.225Z,2.80
2018-01-12T12:33:07.039Z,2.80
2018-01-12T12:35:36.844Z,2.90
2018-01-12T12:38:06.631Z,2.90
2018-01-12T12:40:37.291Z,2.90
2018-01-12T12:43:06.892Z,2.90
2018-01-12T12:45:37.456Z,2.90
2018-01-12T12:48:07.243Z,2.90
2018-01-12T12:50:37.063Z,2.90
2018-01-12T12:53:06.893Z,2.90
2018-01-12T12:55:36.710Z,2.90
2018-01-12T12:58:06.523Z,2.90
2018-01-12T13:00:36.342Z,2.90
2018-01-12T13:03:06.104Z,2.90
2018-01-12T13:05:36.709Z,2.80
2018-01-12T13:08:06.490Z,2.80
2018-01-12T13:10:36.280Z,2.70
2018-01-12T13:13:06.083Z,2.70
2018-01-12T13:15:35.999Z,2.70
2018-01-12T13:18:06.002Z,2.80
2018-01-12T13:20:35.826Z,2.80
2018-01-12T13:23:05.636Z,2.90
2018-01-12T13:25:36.273Z,3.00
2018-01-12T13:28:06.088Z,3.00
2018-01-12T13:30:35.956Z,3.00
2018-01-12T13:33:05.917Z,2.90
2018-01-12T13:35:35.847Z,2.90
2018-01-12T13:38:05.653Z,2.90
2018-01-12T13:40:35.466Z,2.90
2018-01-12T13:43:05.296Z,2.90
2018-01-12T13:45:34.875Z,2.90
2018-01-12T13:48:04.898Z,2.90
2018-01-12T13:50:35.222Z,2.80
2018-01-12T13:53:06.073Z,2.80
2018-01-12T13:55:35.893Z,2.80
2018-01-12T13:58:05.718Z,2.90
2018-01-12T14:00:35.764Z,2.90
2018-01-12T14:03:05.604Z,2.90
2018-01-12T14:05:36.226Z,2.90
2018-01-12T14:08:06.843Z,2.80
2018-01-12T14:10:37.201Z,2.80
2018-01-12T14:13:07.027Z,2.80
2018-01-12T14:15:36.814Z,2.80
2018-01-12T14:18:07.692Z,2.80
2018-01-12T14:20:37.790Z,2.80
2018-01-12T14:23:07.807Z,2.80
2018-01-12T14:25:37.702Z,2.80
2018-01-12T14:28:08.134Z,2.90
2018-01-12T14:30:38.784Z,2.80
2018-01-12T14:33:08.798Z,2.80
2018-01-12T14:35:39.698Z,2.80
2018-01-12T14:38:10.307Z,2.80
2018-01-12T14:40:40.678Z,2.80
2018-01-12T14:43:11.360Z,2.80
2018-01-12T14:45:41.261Z,2.80
2018-01-12T14:48:11.117Z,2.70
2018-01-12T14:50:40.945Z,2.70
2018-01-12T14:53:11.072Z,2.70
2018-01-12T14:55:41.809Z,2.70
2018-01-12T14:58:12.598Z,2.70
2018-01-12T15:00:42.719Z,2.70
2018-01-12T15:03:12.734Z,2.70
2018-01-12T15:05:43.098Z,2.60
2018-01-12T15:08:13.977Z,2.60
2018-01-12T15:10:44.050Z,2.60
2018-01-12T15:13:14.546Z,2.60
2018-01-12T15:15:44.754Z,2.60
2018-01-12T15:18:14.616Z,2.70
2018-01-12T15:20:45.357Z,2.80
2018-01-12T15:23:16.042Z,2.80
2018-01-12T15:25:45.829Z,2.80
2018-01-12T15:28:15.612Z,2.70
2018-01-12T15:30:45.931Z,2.80
2018-01-12T15:33:16.477Z,2.60
2018-01-12T15:35:47.076Z,2.60
2018-01-12T15:38:16.891Z,2.60
2018-01-12T15:40:46.712Z,2.60
2018-01-12T15:43:16.562Z,2.60
2018-01-12T15:45:46.348Z,2.60
2018-01-12T15:48:17.005Z,2.70
2018-01-12T15:50:46.799Z,2.70
2018-01-12T15:53:17.396Z,2.70
2018-01-12T15:55:47.169Z,2.60
2018-01-12T15:58:17.045Z,2.70
2018-01-12T16:00:47.608Z,2.60
2018-01-12T16:03:17.432Z,2.60
2018-01-12T16:05:47.788Z,2.60
2018-01-12T16:08:17.568Z,2.50
2018-01-12T16:10:47.388Z,2.50
2018-01-12T16:13:17.693Z,2.60
2018-01-12T16:15:48.353Z,2.60
2018-01-12T16:18:18.162Z,2.60
2018-01-12T16:20:47.988Z,2.60
2018-01-12T16:23:17.821Z,2.50
2018-01-12T16:25:47.724Z,2.60
2018-01-12T16:28:17.521Z,2.60
2018-01-12T16:30:47.418Z,2.60
2018-01-12T16:33:17.184Z,2.60
2018-01-12T16:35:46.980Z,2.70
2018-01-12T16:38:16.816Z,2.70
2018-01-12T16:40:47.380Z,2.70
2018-01-12T16:43:17.220Z,2.70
2018-01-12T16:45:47.074Z,2.70
2018-01-12T16:48:17.758Z,2.70
2018-01-12T16:50:47.596Z,2.60
2018-01-12T16:53:17.399Z,2.50
2018-01-12T16:55:47.183Z,2.50
2018-01-12T16:58:17.041Z,2.50
2018-01-12T17:00:46.837Z,2.50
2018-01-12T17:03:17.434Z,2.40
2018-01-12T17:05:47.266Z,2.50
2018-01-12T17:08:17.065Z,2.40
2018-01-12T17:10:46.872Z,2.50
2018-01-12T17:13:16.669Z,2.50
2018-01-12T17:15:46.480Z,2.50
2018-01-12T17:18:16.266Z,2.50
2018-01-12T17:20:46.838Z,2.50
2018-01-12T17:23:16.701Z,2.50
2018-01-12T17:25:47.371Z,2.50
2018-01-12T17:28:17.155Z,2.50
2018-01-12T17:30:47.798Z,2.60
2018-01-12T17:33:18.621Z,2.70
2018-01-12T17:35:48.433Z,2.70
2018-01-12T17:38:18.205Z,2.70
2018-01-12T17:40:48.232Z,2.60
2018-01-12T17:43:18.042Z,2.60
2018-01-12T17:45:47.537Z,2.60
2018-01-12T17:48:17.392Z,2.60
2018-01-12T17:50:47.687Z,2.50
2018-01-12T17:53:17.706Z,2.50
2018-01-12T17:55:47.557Z,2.40
2018-01-12T17:58:18.113Z,2.50
2018-01-12T18:00:48.714Z,2.50
2018-01-12T18:03:18.485Z,2.50
2018-01-12T18:05:48.284Z,2.50
2018-01-12T18:08:19.880Z,2.40
2018-01-12T18:10:49.706Z,2.40
2018-01-12T18:13:19.488Z,2.40
2018-01-12T18:15:49.301Z,2.50
2018-01-12T18:18:19.173Z,2.50
2018-01-12T18:20:48.976Z,2.50
2018-01-12T18:23:18.801Z,2.40
2018-01-12T18:25:48.716Z,2.40
2018-01-12T18:28:18.571Z,2.50
2018-01-12T18:30:48.356Z,2.50
2018-01-12T18:33:18.225Z,2.40
2018-01-12T18:35:47.992Z,2.50
2018-01-12T18:38:17.774Z,2.50
2018-01-12T18:40:47.715Z,2.40
2018-01-12T18:43:17.529Z,2.40
2018-01-12T18:45:47.340Z,2.40
2018-01-12T18:48:17.128Z,2.40
2018-01-12T18:50:46.912Z,2.40
2018-01-12T18:53:16.790Z,2.40
2018-01-12T18:55:46.591Z,2.40
2018-01-12T18:58:16.441Z,2.40
2018-01-12T19:00:46.246Z,2.40
2018-01-12T19:03:16.229Z,2.30
2018-01-12T19:05:46.075Z,2.30
2018-01-12T19:08:15.936Z,2.40
2018-01-12T19:10:49.117Z,2.40
2018-01-12T19:13:19.452Z,2.30
2018-01-12T19:15:50.024Z,2.30
2018-01-12T19:18:19.807Z,2.30
2018-01-12T19:20:49.670Z,2.40
2018-01-12T19:23:19.448Z,2.30
2018-01-12T19:25:50.074Z,2.40
2018-01-12T19:28:20.091Z,2.40
2018-01-12T19:30:50.056Z,2.40
2018-01-12T19:33:19.892Z,2.40
2018-01-12T19:35:49.703Z,2.40
2018-01-12T19:38:19.540Z,2.40
2018-01-12T19:40:49.475Z,2.30
2018-01-12T19:43:19.363Z,2.30
2018-01-12T19:45:49.133Z,2.30
2018-01-12T19:48:19.053Z,2.30
2018-01-12T19:50:48.947Z,2.30
2018-01-12T19:53:18.816Z,2.20
2018-01-12T19:55:48.608Z,2.30
2018-01-12T19:58:18.465Z,2.30
2018-01-12T20:00:48.480Z,2.30
2018-01-12T20:03:19.066Z,2.30
2018-01-12T20:05:48.900Z,2.30
2018-01-12T20:08:26.915Z,2.20
2018-01-12T20:10:56.747Z,2.20
2018-01-12T20:13:27.398Z,2.20
2018-01-12T20:15:57.192Z,2.20
2018-01-12T20:18:27.007Z,2.10
2018-01-12T20:20:57.091Z,2.20
2018-01-12T20:23:26.972Z,2.20
2018-01-12T20:25:56.904Z,2.20
2018-01-12T20:28:26.790Z,2.20
2018-01-12T20:30:56.590Z,2.20
2018-01-12T20:33:26.380Z,2.10
2018-01-12T20:35:56.202Z,2.20
2018-01-12T20:38:26.740Z,2.30
2018-01-12T20:40:57.320Z,2.30
2018-01-12T20:43:27.100Z,2.20
2018-01-12T20:45:56.924Z,2.30
2018-01-12T20:48:26.733Z,2.20
2018-01-12T20:50:56.614Z,2.30
2018-01-12T20:53:27.174Z,2.10
2018-01-12T20:55:57.165Z,2.10
2018-01-12T20:58:27.127Z,2.20
2018-01-12T21:00:56.976Z,2.20
2018-01-12T21:03:26.827Z,2.20
2018-01-12T21:05:56.677Z,2.20
2018-01-12T21:08:26.507Z,2.20
2018-01-12T21:10:56.314Z,2.10
2018-01-12T21:13:26.102Z,2.10
2018-01-12T21:15:55.983Z,2.10
2018-01-12T21:18:26.524Z,2.10
2018-01-12T21:20:56.391Z,2.10
2018-01-12T21:23:26.197Z,2.00
2018-01-12T21:25:56.115Z,2.00
2018-01-12T21:28:26.013Z,2.10
2018-01-12T21:30:56.600Z,2.00
2018-01-12T21:33:26.528Z,2.00
2018-01-12T21:35:56.367Z,2.10
2018-01-12T21:38:27.787Z,2.10
2018-01-12T21:40:57.737Z,2.00
2018-01-12T21:43:27.504Z,2.10
2018-01-12T21:45:58.101Z,2.10
2018-01-12T21:48:27.992Z,2.10
2018-01-12T21:50:57.843Z,2.10
2018-01-12T21:53:27.748Z,2.10
2018-01-12T21:55:57.689Z,2.00
2018-01-12T21:58:27.556Z,2.00
2018-01-12T22:00:57.390Z,2.00
2018-01-12T22:03:27.196Z,2.00
2018-01-12T22:05:57.056Z,2.00
2018-01-12T22:08:26.868Z,2.00
2018-01-12T22:10:56.765Z,2.10
2018-01-12T22:13:26.689Z,2.00
2018-01-12T22:15:56.595Z,2.00
2018-01-12T22:18:26.428Z,2.00
2018-01-12T22:20:56.363Z,1.90
2018-01-12T22:23:26.160Z,1.90
2018-01-12T22:25:56.174Z,1.90
2018-01-12T22:28:26.088Z,1.90
2018-01-12T22:30:56.023Z,1.90
2018-01-12T22:33:25.864Z,1.90
2018-01-12T22:35:55.652Z,2.00
2018-01-12T22:38:25.537Z,2.00
2018-01-12T22:40:56.214Z,1.90
2018-01-12T22:43:26.071Z,1.90
2018-01-12T22:45:55.917Z,1.90
2018-01-12T22:48:25.810Z,1.90
2018-01-12T22:50:55.631Z,1.90
2018-01-12T22:53:26.203Z,2.00
2018-01-12T22:55:56.032Z,2.00
2018-01-12T22:58:26.014Z,1.90
2018-01-12T23:00:56.245Z,1.70
2018-01-12T23:03:26.171Z,1.70
2018-01-12T23:05:55.972Z,1.80
2018-01-12T23:08:25.736Z,1.80
2018-01-12T23:10:55.524Z,1.80
2018-01-12T23:13:26.135Z,1.80
2018-01-12T23:15:55.992Z,1.80
2018-01-12T23:18:25.853Z,1.80
2018-01-12T23:20:56.160Z,1.70
2018-01-12T23:23:25.988Z,1.60
2018-01-12T23:25:56.883Z,1.60
2018-01-12T23:28:26.680Z,1.60
2018-01-12T23:30:56.617Z,1.60
2018-01-12T23:33:26.431Z,1.60
2018-01-12T23:35:56.204Z,1.60
2018-01-12T23:38:26.816Z,1.70
2018-01-12T23:40:56.628Z,1.60
2018-01-12T23:43:26.448Z,1.70
2018-01-12T23:45:55.955Z,1.70
2018-01-12T23:48:25.799Z,1.70
2018-01-12T23:50:55.571Z,1.70
2018-01-12T23:53:25.400Z,1.70
2018-01-12T23:55:55.193Z,1.60
2018-01-12T23:58:24.976Z,1.70
